Virgie Cenac — WDC2765 — position and weather

sailwx.info

Track history (hours):
 
Tides and Currents Weather Stations Pressure Air Temp Water Temp Dewpoint Dewpoint Depression Visibility Wind Speed Wind Dir Waves Ship Positions

Virgie Cenac

Owner: Cenac Marine Transportation, Inc., Houma, LA. More information available from US FCC via Universal Licensing System and Coast Guard Vessel Documentation Center.

Last reported at 2015-Jan-15 18:17 UTC. Time now 2015-Jan-30 09:30 UTC.
Position N 29°42' W 091°31'.
Warning: this ship's position is 14 days out of date.

Length 18 m; draft 3 m.

Type: Towing. MMSI: 366997430.

Date/timePositionNaut miles runAvg speedWind from/ knotsBaromVisibWave heightAir tempDewpointWater temp
2015-Jan-15 18:17N 29°42' W 091°31'7 6.2
2015-Jan-15 17:08N 29°39' W 091°24'3 5.7
2015-Jan-15 16:33N 29°38' W 091°20'10 3.4
2015-Jan-15 13:33N 29°41' W 091°09'4 3.6
2015-Jan-15 12:33N 29°38' W 091°06'3 3.1
2015-Jan-15 11:27N 29°37' W 091°02'3 3.7
2015-Jan-15 10:33N 29°36' W 090°59'1 0.1
2015-Jan-14 23:12N 29°37' W 090°60'5 8.1
2015-Jan-14 22:33N 29°38' W 091°06'1 1.2
2015-Jan-14 21:33N 29°40' W 091°06'1 1.3
2015-Jan-14 20:33N 29°39' W 091°07'1 1.3
2015-Jan-14 19:33N 29°40' W 091°08'0 0.0
2015-Jan-14 18:32N 29°40' W 091°08'0 0.0
2015-Jan-14 17:33N 29°40' W 091°08'0 0.0
2015-Jan-14 16:33N 29°40' W 091°08'0 0.0
2015-Jan-14 15:33N 29°40' W 091°08'0 0.0
2015-Jan-14 14:33N 29°40' W 091°08'0 0.0
2015-Jan-14 13:33N 29°40' W 091°08'0 0.0
2015-Jan-14 12:33N 29°40' W 091°08'0 0.0
2015-Jan-14 11:33N 29°40' W 091°08'0 0.0
2015-Jan-14 10:33N 29°40' W 091°08'0 0.0
2015-Jan-14 09:33N 29°40' W 091°08'0 0.0
2015-Jan-14 08:33N 29°40' W 091°08'0 0.0
2015-Jan-14 07:33N 29°40' W 091°08'0 0.0
2015-Jan-14 06:33N 29°40' W 091°08'0 0.0
2015-Jan-14 05:33N 29°40' W 091°08'0 0.0
2015-Jan-14 04:33N 29°40' W 091°08'0 0.0
2015-Jan-14 03:33N 29°40' W 091°08'0 0.0
2015-Jan-14 02:33N 29°40' W 091°08'0 0.0
2015-Jan-14 01:20N 29°40' W 091°08'0 0.0
2015-Jan-14 00:33N 29°40' W 091°08'0 0.0
2015-Jan-13 23:33N 29°40' W 091°08'0 0.0
2015-Jan-13 22:32N 29°40' W 091°08'0 0.0
2015-Jan-13 21:33N 29°40' W 091°08'0 0.0
2015-Jan-13 20:33N 29°40' W 091°08'2 2.3
2015-Jan-13 19:33N 29°38' W 091°06'  
2015-Jan-11 00:08N 29°37' W 091°02'1 0.2
2015-Jan-10 20:04N 29°38' W 091°03'0 0.4
2015-Jan-10 19:10N 29°37' W 091°03'1 1.1
2015-Jan-10 18:26N 29°38' W 091°03'0 0.0
2015-Jan-10 17:09N 29°38' W 091°03'0 0.0
2015-Jan-10 16:33N 29°38' W 091°03'0 0.0
2015-Jan-10 15:25N 29°38' W 091°03'1 0.7
2015-Jan-10 14:16N 29°37' W 091°04'2 3.2
2015-Jan-10 13:33N 29°38' W 091°06'3 0.4
2015-Jan-10 06:12N 29°39' W 091°02'1 1.6
2015-Jan-10 05:32N 29°40' W 091°02'2 0.2
2015-Jan-09 19:17N 29°38' W 091°03'1 0.2
2015-Jan-09 15:20N 29°38' W 091°03'1 0.2
2015-Jan-09 11:33N 29°37' W 091°03'0 0.0
2015-Jan-09 10:30N 29°37' W 091°03'1 0.7
2015-Jan-09 09:21N 29°37' W 091°02'3 2.6
2015-Jan-09 08:14N 29°37' W 090°59'  
Track history (hours):
 
Tides and Currents Weather Stations Pressure Air Temp Water Temp Dewpoint Dewpoint Depression Visibility Wind Speed Wind Dir Waves Ship Positions

Virgie Cenac

Owner: Cenac Marine Transportation, Inc., Houma, LA. More information available from US FCC via Universal Licensing System and Coast Guard Vessel Documentation Center.

Last reported at 2015-Jan-15 18:17 UTC. Time now 2015-Jan-30 09:30 UTC.
Position N 29°42' W 091°31'.
Warning: this ship's position is 14 days out of date.

Length 18 m; draft 3 m.

Type: Towing. MMSI: 366997430.

Date/timePositionNaut miles runAvg speedWind from/ knotsBaromVisibWave heightAir tempDewpointWater temp
2015-Jan-15 18:17N 29°42' W 091°31'7 6.2
2015-Jan-15 17:08N 29°39' W 091°24'3 5.7
2015-Jan-15 16:33N 29°38' W 091°20'10 3.4
2015-Jan-15 13:33N 29°41' W 091°09'4 3.6
2015-Jan-15 12:33N 29°38' W 091°06'3 3.1
2015-Jan-15 11:27N 29°37' W 091°02'3 3.7
2015-Jan-15 10:33N 29°36' W 090°59'1 0.1
2015-Jan-14 23:12N 29°37' W 090°60'5 8.1
2015-Jan-14 22:33N 29°38' W 091°06'1 1.2
2015-Jan-14 21:33N 29°40' W 091°06'1 1.3
2015-Jan-14 20:33N 29°39' W 091°07'1 1.3
2015-Jan-14 19:33N 29°40' W 091°08'0 0.0
2015-Jan-14 18:32N 29°40' W 091°08'0 0.0
2015-Jan-14 17:33N 29°40' W 091°08'0 0.0
2015-Jan-14 16:33N 29°40' W 091°08'0 0.0
2015-Jan-14 15:33N 29°40' W 091°08'0 0.0
2015-Jan-14 14:33N 29°40' W 091°08'0 0.0
2015-Jan-14 13:33N 29°40' W 091°08'0 0.0
2015-Jan-14 12:33N 29°40' W 091°08'0 0.0
2015-Jan-14 11:33N 29°40' W 091°08'0 0.0
2015-Jan-14 10:33N 29°40' W 091°08'0 0.0
2015-Jan-14 09:33N 29°40' W 091°08'0 0.0
2015-Jan-14 08:33N 29°40' W 091°08'0 0.0
2015-Jan-14 07:33N 29°40' W 091°08'0 0.0
2015-Jan-14 06:33N 29°40' W 091°08'0 0.0
2015-Jan-14 05:33N 29°40' W 091°08'0 0.0
2015-Jan-14 04:33N 29°40' W 091°08'0 0.0
2015-Jan-14 03:33N 29°40' W 091°08'0 0.0
2015-Jan-14 02:33N 29°40' W 091°08'0 0.0
2015-Jan-14 01:20N 29°40' W 091°08'0 0.0
2015-Jan-14 00:33N 29°40' W 091°08'0 0.0
2015-Jan-13 23:33N 29°40' W 091°08'0 0.0
2015-Jan-13 22:32N 29°40' W 091°08'0 0.0
2015-Jan-13 21:33N 29°40' W 091°08'0 0.0
2015-Jan-13 20:33N 29°40' W 091°08'2 2.3
2015-Jan-13 19:33N 29°38' W 091°06'  
2015-Jan-11 00:08N 29°37' W 091°02'1 0.2
2015-Jan-10 20:04N 29°38' W 091°03'0 0.4
2015-Jan-10 19:10N 29°37' W 091°03'1 1.1
2015-Jan-10 18:26N 29°38' W 091°03'0 0.0
2015-Jan-10 17:09N 29°38' W 091°03'0 0.0
2015-Jan-10 16:33N 29°38' W 091°03'0 0.0
2015-Jan-10 15:25N 29°38' W 091°03'1 0.7
2015-Jan-10 14:16N 29°37' W 091°04'2 3.2
2015-Jan-10 13:33N 29°38' W 091°06'3 0.4
2015-Jan-10 06:12N 29°39' W 091°02'1 1.6
2015-Jan-10 05:32N 29°40' W 091°02'2 0.2
2015-Jan-09 19:17N 29°38' W 091°03'1 0.2
2015-Jan-09 15:20N 29°38' W 091°03'1 0.2
2015-Jan-09 11:33N 29°37' W 091°03'0 0.0
2015-Jan-09 10:30N 29°37' W 091°03'1 0.7
2015-Jan-09 09:21N 29°37' W 091°02'3 2.6
2015-Jan-09 08:14N 29°37' W 090°59'  

Dump ship's entire track history